sensor_id;sensor_type;location;lat;lon;timestamp;temperature;humidity
66271;DHT22;53063;39.614;8.814;2023-11-19T00:00:53;12.40;99.90
66271;DHT22;53063;39.614;8.814;2023-11-19T00:03:19;12.10;99.90
66271;DHT22;53063;39.614;8.814;2023-11-19T00:05:45;12.00;99.90
66271;DHT22;53063;39.614;8.814;2023-11-19T00:08:11;12.00;99.90
66271;DHT22;53063;39.614;8.814;2023-11-19T00:10:37;12.00;99.90
66271;DHT22;53063;39.614;8.814;2023-11-19T00:13:03;12.10;99.90
66271;DHT22;53063;39.614;8.814;2023-11-19T00:15:30;12.10;99.90
66271;DHT22;53063;39.614;8.814;2023-11-19T00:17:55;12.00;99.90
66271;DHT22;53063;39.614;8.814;2023-11-19T00:20:21;12.10;99.90
66271;DHT22;53063;39.614;8.814;2023-11-19T00:22:47;12.10;99.90
66271;DHT22;53063;39.614;8.814;2023-11-19T00:25:17;12.20;99.90
66271;DHT22;53063;39.614;8.814;2023-11-19T00:27:43;12.40;99.90
66271;DHT22;53063;39.614;8.814;2023-11-19T00:30:13;12.40;99.90
66271;DHT22;53063;39.614;8.814;2023-11-19T00:32:40;12.30;99.90
66271;DHT22;53063;39.614;8.814;2023-11-19T00:35:06;12.30;99.90
66271;DHT22;53063;39.614;8.814;2023-11-19T00:37:36;12.30;99.90
66271;DHT22;53063;39.614;8.814;2023-11-19T00:40:02;12.40;99.90
66271;DHT22;53063;39.614;8.814;2023-11-19T00:42:30;12.40;99.90
66271;DHT22;53063;39.614;8.814;2023-11-19T00:44:56;12.60;99.90
66271;DHT22;53063;39.614;8.814;2023-11-19T00:47:23;12.60;99.90
66271;DHT22;53063;39.614;8.814;2023-11-19T00:49:49;12.70;99.90
66271;DHT22;53063;39.614;8.814;2023-11-19T00:52:16;12.70;99.90
66271;DHT22;53063;39.614;8.814;2023-11-19T00:54:42;12.80;99.90
66271;DHT22;53063;39.614;8.814;2023-11-19T00:57:08;12.70;99.90
66271;DHT22;53063;39.614;8.814;2023-11-19T00:59:34;12.60;99.90
66271;DHT22;53063;39.614;8.814;2023-11-19T01:02:00;12.50;99.90
66271;DHT22;53063;39.614;8.814;2023-11-19T01:04:34;12.60;99.90
66271;DHT22;53063;39.614;8.814;2023-11-19T01:07:04;12.60;99.90
66271;DHT22;53063;39.614;8.814;2023-11-19T01:09:33;12.70;99.90
66271;DHT22;53063;39.614;8.814;2023-11-19T01:12:00;12.60;99.90
66271;DHT22;53063;39.614;8.814;2023-11-19T01:14:27;12.40;99.90
66271;DHT22;53063;39.614;8.814;2023-11-19T01:16:53;12.40;99.90
66271;DHT22;53063;39.614;8.814;2023-11-19T01:19:22;12.20;99.90
66271;DHT22;53063;39.614;8.814;2023-11-19T01:21:51;12.20;99.90
66271;DHT22;53063;39.614;8.814;2023-11-19T01:24:17;12.30;99.90
66271;DHT22;53063;39.614;8.814;2023-11-19T01:26:44;12.50;99.90
66271;DHT22;53063;39.614;8.814;2023-11-19T01:29:13;12.60;99.90
66271;DHT22;53063;39.614;8.814;2023-11-19T01:31:45;12.60;99.90
66271;DHT22;53063;39.614;8.814;2023-11-19T01:34:12;12.70;99.90
66271;DHT22;53063;39.614;8.814;2023-11-19T01:36:38;12.80;99.90
66271;DHT22;53063;39.614;8.814;2023-11-19T01:39:04;12.80;99.90
66271;DHT22;53063;39.614;8.814;2023-11-19T01:41:37;12.90;99.90
66271;DHT22;53063;39.614;8.814;2023-11-19T01:44:06;12.80;99.90
66271;DHT22;53063;39.614;8.814;2023-11-19T01:46:32;12.70;99.90
66271;DHT22;53063;39.614;8.814;2023-11-19T01:48:59;12.60;99.90
66271;DHT22;53063;39.614;8.814;2023-11-19T01:51:26;12.60;99.90
66271;DHT22;53063;39.614;8.814;2023-11-19T01:53:53;12.80;99.90
66271;DHT22;53063;39.614;8.814;2023-11-19T01:56:20;13.00;99.90
66271;DHT22;53063;39.614;8.814;2023-11-19T01:58:47;13.00;99.90
66271;DHT22;53063;39.614;8.814;2023-11-19T02:01:15;13.00;99.90
66271;DHT22;53063;39.614;8.814;2023-11-19T02:03:41;12.90;99.90
66271;DHT22;53063;39.614;8.814;2023-11-19T02:06:07;13.00;99.90
66271;DHT22;53063;39.614;8.814;2023-11-19T02:08:33;13.00;99.90
66271;DHT22;53063;39.614;8.814;2023-11-19T02:10:59;13.10;99.90
66271;DHT22;53063;39.614;8.814;2023-11-19T02:13:27;13.00;99.90
66271;DHT22;53063;39.614;8.814;2023-11-19T02:15:54;13.10;99.90
66271;DHT22;53063;39.614;8.814;2023-11-19T02:18:25;13.20;99.90
66271;DHT22;53063;39.614;8.814;2023-11-19T02:20:54;13.20;99.90
66271;DHT22;53063;39.614;8.814;2023-11-19T02:23:20;13.20;99.90
66271;DHT22;53063;39.614;8.814;2023-11-19T02:28:27;13.20;99.90
66271;DHT22;53063;39.614;8.814;2023-11-19T02:30:53;13.10;99.90
66271;DHT22;53063;39.614;8.814;2023-11-19T02:33:19;13.00;99.90
66271;DHT22;53063;39.614;8.814;2023-11-19T02:35:45;12.90;99.90
66271;DHT22;53063;39.614;8.814;2023-11-19T02:38:11;13.00;99.90
66271;DHT22;53063;39.614;8.814;2023-11-19T02:40:39;13.10;99.90
66271;DHT22;53063;39.614;8.814;2023-11-19T02:43:05;13.20;99.90
66271;DHT22;53063;39.614;8.814;2023-11-19T02:45:31;13.20;99.90
66271;DHT22;53063;39.614;8.814;2023-11-19T02:47:57;13.10;99.90
66271;DHT22;53063;39.614;8.814;2023-11-19T02:50:23;13.00;99.90
66271;DHT22;53063;39.614;8.814;2023-11-19T02:52:53;12.90;99.90
66271;DHT22;53063;39.614;8.814;2023-11-19T02:55:19;13.00;99.90
66271;DHT22;53063;39.614;8.814;2023-11-19T02:57:45;12.90;99.90
66271;DHT22;53063;39.614;8.814;2023-11-19T03:00:17;12.80;99.90
66271;DHT22;53063;39.614;8.814;2023-11-19T03:02:46;12.70;99.90
66271;DHT22;53063;39.614;8.814;2023-11-19T03:05:14;12.80;99.90
66271;DHT22;53063;39.614;8.814;2023-11-19T03:07:43;12.80;99.90
66271;DHT22;53063;39.614;8.814;2023-11-19T03:10:10;13.00;99.90
66271;DHT22;53063;39.614;8.814;2023-11-19T03:12:44;12.80;99.90
66271;DHT22;53063;39.614;8.814;2023-11-19T03:15:11;12.80;99.90
66271;DHT22;53063;39.614;8.814;2023-11-19T03:17:41;12.80;99.90
66271;DHT22;53063;39.614;8.814;2023-11-19T03:20:08;12.90;99.90
66271;DHT22;53063;39.614;8.814;2023-11-19T03:22:43;13.00;99.90
66271;DHT22;53063;39.614;8.814;2023-11-19T03:25:10;13.10;99.90
66271;DHT22;53063;39.614;8.814;2023-11-19T03:27:37;13.10;99.90
66271;DHT22;53063;39.614;8.814;2023-11-19T03:30:05;13.20;99.90
66271;DHT22;53063;39.614;8.814;2023-11-19T03:32:32;13.20;99.90
66271;DHT22;53063;39.614;8.814;2023-11-19T03:34:58;13.30;99.90
66271;DHT22;53063;39.614;8.814;2023-11-19T03:37:26;13.20;99.90
66271;DHT22;53063;39.614;8.814;2023-11-19T03:39:54;13.20;99.90
66271;DHT22;53063;39.614;8.814;2023-11-19T03:42:20;13.30;99.90
66271;DHT22;53063;39.614;8.814;2023-11-19T03:44:47;13.30;99.90
66271;DHT22;53063;39.614;8.814;2023-11-19T03:47:12;13.40;99.90
66271;DHT22;53063;39.614;8.814;2023-11-19T03:49:38;13.50;99.90
66271;DHT22;53063;39.614;8.814;2023-11-19T03:52:04;13.50;99.90
66271;DHT22;53063;39.614;8.814;2023-11-19T03:54:30;13.40;99.90
66271;DHT22;53063;39.614;8.814;2023-11-19T03:56:58;13.50;99.90
66271;DHT22;53063;39.614;8.814;2023-11-19T03:59:25;13.40;99.90
66271;DHT22;53063;39.614;8.814;2023-11-19T04:01:51;13.30;99.90
66271;DHT22;53063;39.614;8.814;2023-11-19T04:04:20;13.30;99.90
66271;DHT22;53063;39.614;8.814;2023-11-19T04:06:46;13.20;99.90
66271;DHT22;53063;39.614;8.814;2023-11-19T04:09:11;13.40;99.90
66271;DHT22;53063;39.614;8.814;2023-11-19T04:11:38;13.50;99.90
66271;DHT22;53063;39.614;8.814;2023-11-19T04:14:05;13.60;99.90
66271;DHT22;53063;39.614;8.814;2023-11-19T04:16:31;13.60;99.90
66271;DHT22;53063;39.614;8.814;2023-11-19T04:18:57;13.70;99.90
66271;DHT22;53063;39.614;8.814;2023-11-19T04:21:24;13.70;99.90
66271;DHT22;53063;39.614;8.814;2023-11-19T04:23:51;13.80;99.90
66271;DHT22;53063;39.614;8.814;2023-11-19T04:26:17;13.80;99.90
66271;DHT22;53063;39.614;8.814;2023-11-19T04:28:43;13.80;99.90
66271;DHT22;53063;39.614;8.814;2023-11-19T04:31:08;13.80;99.90
66271;DHT22;53063;39.614;8.814;2023-11-19T04:33:35;13.80;99.90
66271;DHT22;53063;39.614;8.814;2023-11-19T04:36:00;13.80;99.90
66271;DHT22;53063;39.614;8.814;2023-11-19T04:38:28;13.80;99.90
66271;DHT22;53063;39.614;8.814;2023-11-19T04:40:53;13.80;99.90
66271;DHT22;53063;39.614;8.814;2023-11-19T04:43:19;13.70;99.90
66271;DHT22;53063;39.614;8.814;2023-11-19T04:45:45;13.80;99.90
66271;DHT22;53063;39.614;8.814;2023-11-19T04:48:11;13.70;99.90
66271;DHT22;53063;39.614;8.814;2023-11-19T04:50:38;13.60;99.90
66271;DHT22;53063;39.614;8.814;2023-11-19T04:53:04;13.60;99.90
66271;DHT22;53063;39.614;8.814;2023-11-19T04:55:30;13.70;99.90
66271;DHT22;53063;39.614;8.814;2023-11-19T04:57:55;13.70;99.90
66271;DHT22;53063;39.614;8.814;2023-11-19T05:00:22;13.70;99.90
66271;DHT22;53063;39.614;8.814;2023-11-19T05:02:47;13.80;99.90
66271;DHT22;53063;39.614;8.814;2023-11-19T05:05:15;13.80;99.90
66271;DHT22;53063;39.614;8.814;2023-11-19T05:07:41;13.80;99.90
66271;DHT22;53063;39.614;8.814;2023-11-19T05:10:07;13.80;99.90
66271;DHT22;53063;39.614;8.814;2023-11-19T05:12:34;13.90;99.90
66271;DHT22;53063;39.614;8.814;2023-11-19T05:14:59;13.80;99.90
66271;DHT22;53063;39.614;8.814;2023-11-19T05:17:26;13.50;99.90
66271;DHT22;53063;39.614;8.814;2023-11-19T05:19:52;13.40;99.90
66271;DHT22;53063;39.614;8.814;2023-11-19T05:22:18;13.30;99.90
66271;DHT22;53063;39.614;8.814;2023-11-19T05:24:43;13.20;99.90
66271;DHT22;53063;39.614;8.814;2023-11-19T05:27:09;13.20;99.90
66271;DHT22;53063;39.614;8.814;2023-11-19T05:29:37;13.00;99.90
66271;DHT22;53063;39.614;8.814;2023-11-19T05:32:05;13.00;99.90
66271;DHT22;53063;39.614;8.814;2023-11-19T05:34:31;12.90;99.90
66271;DHT22;53063;39.614;8.814;2023-11-19T05:36:56;12.80;99.90
66271;DHT22;53063;39.614;8.814;2023-11-19T05:39:23;12.80;99.90
66271;DHT22;53063;39.614;8.814;2023-11-19T05:41:50;12.70;99.90
66271;DHT22;53063;39.614;8.814;2023-11-19T05:44:16;12.70;99.90
66271;DHT22;53063;39.614;8.814;2023-11-19T05:46:42;12.60;99.90
66271;DHT22;53063;39.614;8.814;2023-11-19T05:49:10;12.50;99.90
66271;DHT22;53063;39.614;8.814;2023-11-19T05:51:40;12.50;99.90
66271;DHT22;53063;39.614;8.814;2023-11-19T05:54:09;12.50;99.90
66271;DHT22;53063;39.614;8.814;2023-11-19T05:56:36;12.60;99.90
66271;DHT22;53063;39.614;8.814;2023-11-19T05:59:02;12.60;99.90
66271;DHT22;53063;39.614;8.814;2023-11-19T06:01:40;12.60;99.90
66271;DHT22;53063;39.614;8.814;2023-11-19T06:04:07;12.50;99.90
66271;DHT22;53063;39.614;8.814;2023-11-19T06:06:33;12.50;99.90
66271;DHT22;53063;39.614;8.814;2023-11-19T06:08:59;12.40;99.90
66271;DHT22;53063;39.614;8.814;2023-11-19T06:11:25;12.40;99.90
66271;DHT22;53063;39.614;8.814;2023-11-19T06:13:52;12.50;99.90
66271;DHT22;53063;39.614;8.814;2023-11-19T06:16:19;12.50;99.90
66271;DHT22;53063;39.614;8.814;2023-11-19T06:18:45;12.50;99.90
66271;DHT22;53063;39.614;8.814;2023-11-19T06:21:11;12.50;99.90
66271;DHT22;53063;39.614;8.814;2023-11-19T06:23:37;12.50;99.90
66271;DHT22;53063;39.614;8.814;2023-11-19T06:26:04;12.60;99.90
66271;DHT22;53063;39.614;8.814;2023-11-19T06:28:31;12.60;99.90
66271;DHT22;53063;39.614;8.814;2023-11-19T06:30:57;12.70;99.90
66271;DHT22;53063;39.614;8.814;2023-11-19T06:33:24;12.50;99.90
66271;DHT22;53063;39.614;8.814;2023-11-19T06:35:50;12.60;99.90
66271;DHT22;53063;39.614;8.814;2023-11-19T06:38:16;12.70;99.90
66271;DHT22;53063;39.614;8.814;2023-11-19T06:40:42;12.70;99.90
66271;DHT22;53063;39.614;8.814;2023-11-19T06:43:08;12.80;99.90
66271;DHT22;53063;39.614;8.814;2023-11-19T06:45:36;12.70;99.90
66271;DHT22;53063;39.614;8.814;2023-11-19T06:48:03;12.70;99.90
66271;DHT22;53063;39.614;8.814;2023-11-19T06:50:33;12.90;99.90
66271;DHT22;53063;39.614;8.814;2023-11-19T06:52:59;13.10;99.90
66271;DHT22;53063;39.614;8.814;2023-11-19T06:55:26;13.20;99.90
66271;DHT22;53063;39.614;8.814;2023-11-19T06:57:52;13.30;99.90
66271;DHT22;53063;39.614;8.814;2023-11-19T07:00:18;13.50;99.90
66271;DHT22;53063;39.614;8.814;2023-11-19T07:02:44;13.50;99.90
66271;DHT22;53063;39.614;8.814;2023-11-19T07:05:10;13.50;99.90
66271;DHT22;53063;39.614;8.814;2023-11-19T07:07:38;13.50;99.90
66271;DHT22;53063;39.614;8.814;2023-11-19T07:10:06;13.60;99.90
66271;DHT22;53063;39.614;8.814;2023-11-19T07:12:34;13.70;99.90
66271;DHT22;53063;39.614;8.814;2023-11-19T07:15:01;13.80;99.90
66271;DHT22;53063;39.614;8.814;2023-11-19T07:17:30;13.90;99.90
66271;DHT22;53063;39.614;8.814;2023-11-19T07:19:56;14.00;99.90
66271;DHT22;53063;39.614;8.814;2023-11-19T07:22:25;14.00;99.90
66271;DHT22;53063;39.614;8.814;2023-11-19T07:24:51;14.30;99.90
66271;DHT22;53063;39.614;8.814;2023-11-19T07:27:19;14.40;99.90
66271;DHT22;53063;39.614;8.814;2023-11-19T07:29:44;14.50;99.90
66271;DHT22;53063;39.614;8.814;2023-11-19T07:32:11;14.30;99.90
66271;DHT22;53063;39.614;8.814;2023-11-19T07:34:39;14.30;99.90
66271;DHT22;53063;39.614;8.814;2023-11-19T07:37:05;14.10;99.90
66271;DHT22;53063;39.614;8.814;2023-11-19T07:39:31;14.10;99.90
66271;DHT22;53063;39.614;8.814;2023-11-19T07:41:57;14.30;99.90
66271;DHT22;53063;39.614;8.814;2023-11-19T07:44:24;14.40;99.90
66271;DHT22;53063;39.614;8.814;2023-11-19T07:46:50;14.60;99.90
66271;DHT22;53063;39.614;8.814;2023-11-19T07:49:16;14.80;99.90
66271;DHT22;53063;39.614;8.814;2023-11-19T07:51:41;15.00;99.90
66271;DHT22;53063;39.614;8.814;2023-11-19T07:54:07;15.20;99.90
66271;DHT22;53063;39.614;8.814;2023-11-19T07:56:34;15.40;99.90
66271;DHT22;53063;39.614;8.814;2023-11-19T07:59:03;15.60;99.90
66271;DHT22;53063;39.614;8.814;2023-11-19T08:01:29;15.80;99.90
66271;DHT22;53063;39.614;8.814;2023-11-19T08:03:55;16.00;99.90
66271;DHT22;53063;39.614;8.814;2023-11-19T08:06:20;16.20;99.90
66271;DHT22;53063;39.614;8.814;2023-11-19T08:08:47;16.50;99.90
66271;DHT22;53063;39.614;8.814;2023-11-19T08:11:13;16.70;99.90
66271;DHT22;53063;39.614;8.814;2023-11-19T08:13:40;16.90;99.90
66271;DHT22;53063;39.614;8.814;2023-11-19T08:16:06;17.10;99.90
66271;DHT22;53063;39.614;8.814;2023-11-19T08:18:32;21.30;99.90
66271;DHT22;53063;39.614;8.814;2023-11-19T08:20:58;20.50;99.90
66271;DHT22;53063;39.614;8.814;2023-11-19T08:23:26;19.60;98.00
66271;DHT22;53063;39.614;8.814;2023-11-19T08:25:54;18.50;99.90
66271;DHT22;53063;39.614;8.814;2023-11-19T08:28:20;18.00;99.90
66271;DHT22;53063;39.614;8.814;2023-11-19T08:30:46;17.90;99.90
66271;DHT22;53063;39.614;8.814;2023-11-19T08:33:12;17.90;99.90
66271;DHT22;53063;39.614;8.814;2023-11-19T08:35:38;18.00;99.90
66271;DHT22;53063;39.614;8.814;2023-11-19T08:38:03;17.80;99.90
66271;DHT22;53063;39.614;8.814;2023-11-19T08:40:29;17.50;99.90
66271;DHT22;53063;39.614;8.814;2023-11-19T08:42:56;17.60;99.90
66271;DHT22;53063;39.614;8.814;2023-11-19T08:45:22;17.70;99.90
66271;DHT22;53063;39.614;8.814;2023-11-19T08:47:48;17.90;99.90
66271;DHT22;53063;39.614;8.814;2023-11-19T08:50:14;18.20;99.90
66271;DHT22;53063;39.614;8.814;2023-11-19T08:52:40;20.10;99.90
66271;DHT22;53063;39.614;8.814;2023-11-19T08:55:06;20.00;99.90
66271;DHT22;53063;39.614;8.814;2023-11-19T08:57:33;20.30;99.90
66271;DHT22;53063;39.614;8.814;2023-11-19T08:59:59;20.50;99.90
66271;DHT22;53063;39.614;8.814;2023-11-19T09:02:25;21.70;94.70
66271;DHT22;53063;39.614;8.814;2023-11-19T09:04:52;21.00;91.80
66271;DHT22;53063;39.614;8.814;2023-11-19T09:07:18;22.70;99.90
66271;DHT22;53063;39.614;8.814;2023-11-19T09:09:44;25.20;75.10
66271;DHT22;53063;39.614;8.814;2023-11-19T09:12:09;22.40;81.20
66271;DHT22;53063;39.614;8.814;2023-11-19T09:14:35;20.80;89.20
66271;DHT22;53063;39.614;8.814;2023-11-19T09:17:01;20.50;94.70
66271;DHT22;53063;39.614;8.814;2023-11-19T09:19:27;20.60;94.40
66271;DHT22;53063;39.614;8.814;2023-11-19T09:21:53;21.00;99.00
66271;DHT22;53063;39.614;8.814;2023-11-19T09:24:19;21.30;92.40
66271;DHT22;53063;39.614;8.814;2023-11-19T09:26:45;26.40;77.00
66271;DHT22;53063;39.614;8.814;2023-11-19T09:29:11;26.50;69.80
66271;DHT22;53063;39.614;8.814;2023-11-19T09:31:40;30.60;58.30
66271;DHT22;53063;39.614;8.814;2023-11-19T09:34:06;31.10;55.00
66271;DHT22;53063;39.614;8.814;2023-11-19T09:36:32;28.80;56.40
66271;DHT22;53063;39.614;8.814;2023-11-19T09:38:58;25.20;67.00
66271;DHT22;53063;39.614;8.814;2023-11-19T09:41:26;22.60;77.00
66271;DHT22;53063;39.614;8.814;2023-11-19T09:43:53;24.30;79.30
66271;DHT22;53063;39.614;8.814;2023-11-19T09:46:19;26.00;71.30
66271;DHT22;53063;39.614;8.814;2023-11-19T09:48:46;26.10;69.50
66271;DHT22;53063;39.614;8.814;2023-11-19T09:51:14;24.90;71.80
66271;DHT22;53063;39.614;8.814;2023-11-19T09:53:40;26.10;71.80
66271;DHT22;53063;39.614;8.814;2023-11-19T09:56:07;26.10;69.90
66271;DHT22;53063;39.614;8.814;2023-11-19T09:58:36;25.10;70.40
66271;DHT22;53063;39.614;8.814;2023-11-19T10:01:01;24.70;71.40
66271;DHT22;53063;39.614;8.814;2023-11-19T10:03:36;23.40;75.60
66271;DHT22;53063;39.614;8.814;2023-11-19T10:06:08;24.00;76.60
66271;DHT22;53063;39.614;8.814;2023-11-19T10:08:38;23.10;78.60
66271;DHT22;53063;39.614;8.814;2023-11-19T10:11:07;22.10;83.50
66271;DHT22;53063;39.614;8.814;2023-11-19T10:13:35;21.20;88.50
66271;DHT22;53063;39.614;8.814;2023-11-19T10:16:12;24.00;81.70
66271;DHT22;53063;39.614;8.814;2023-11-19T10:18:48;30.10;60.20
66271;DHT22;53063;39.614;8.814;2023-11-19T10:21:17;33.10;50.30
66271;DHT22;53063;39.614;8.814;2023-11-19T10:23:54;33.50;46.30
66271;DHT22;53063;39.614;8.814;2023-11-19T10:26:22;33.80;44.90
66271;DHT22;53063;39.614;8.814;2023-11-19T10:28:48;31.10;47.30
66271;DHT22;53063;39.614;8.814;2023-11-19T10:31:15;25.90;61.00
66271;DHT22;53063;39.614;8.814;2023-11-19T10:33:42;23.10;72.50
66271;DHT22;53063;39.614;8.814;2023-11-19T10:36:11;22.50;78.80
66271;DHT22;53063;39.614;8.814;2023-11-19T10:38:38;24.30;70.40
66271;DHT22;53063;39.614;8.814;2023-11-19T10:41:04;25.30;71.30
66271;DHT22;53063;39.614;8.814;2023-11-19T10:43:31;24.90;68.50
66271;DHT22;53063;39.614;8.814;2023-11-19T10:46:15;23.20;73.80
66271;DHT22;53063;39.614;8.814;2023-11-19T10:48:46;21.70;80.80
66271;DHT22;53063;39.614;8.814;2023-11-19T10:51:13;21.00;85.70
66271;DHT22;53063;39.614;8.814;2023-11-19T10:53:47;21.00;87.60
66271;DHT22;53063;39.614;8.814;2023-11-19T10:56:16;21.90;88.30
66271;DHT22;53063;39.614;8.814;2023-11-19T10:58:45;22.80;79.20
66271;DHT22;53063;39.614;8.814;2023-11-19T11:01:16;22.40;79.50
66271;DHT22;53063;39.614;8.814;2023-11-19T11:03:44;22.00;81.40
66271;DHT22;53063;39.614;8.814;2023-11-19T11:06:13;22.00;82.40
66271;DHT22;53063;39.614;8.814;2023-11-19T11:08:39;22.70;80.40
66271;DHT22;53063;39.614;8.814;2023-11-19T11:11:06;23.60;75.50
66271;DHT22;53063;39.614;8.814;2023-11-19T11:13:33;22.80;75.80
66271;DHT22;53063;39.614;8.814;2023-11-19T11:15:59;22.00;80.40
66271;DHT22;53063;39.614;8.814;2023-11-19T11:18:26;21.80;82.20
66271;DHT22;53063;39.614;8.814;2023-11-19T11:21:07;21.50;83.40
66271;DHT22;53063;39.614;8.814;2023-11-19T11:32:35;22.90;79.20
66271;DHT22;53063;39.614;8.814;2023-11-19T11:35:08;23.90;74.90
66271;DHT22;53063;39.614;8.814;2023-11-19T11:37:44;23.70;73.70
66271;DHT22;53063;39.614;8.814;2023-11-19T11:40:17;23.90;74.80
66271;DHT22;53063;39.614;8.814;2023-11-19T11:42:47;24.20;73.50
66271;DHT22;53063;39.614;8.814;2023-11-19T11:45:14;24.20;70.80
66271;DHT22;53063;39.614;8.814;2023-11-19T11:57:51;22.50;77.50
66271;DHT22;53063;39.614;8.814;2023-11-19T12:00:30;23.40;75.70
66271;DHT22;53063;39.614;8.814;2023-11-19T12:02:56;24.00;72.30
66271;DHT22;53063;39.614;8.814;2023-11-19T12:05:23;23.80;69.90
66271;DHT22;53063;39.614;8.814;2023-11-19T12:07:56;23.90;69.60
66271;DHT22;53063;39.614;8.814;2023-11-19T12:10:38;23.60;68.90
66271;DHT22;53063;39.614;8.814;2023-11-19T12:13:09;23.80;67.50
66271;DHT22;53063;39.614;8.814;2023-11-19T12:18:24;23.40;66.00
66271;DHT22;53063;39.614;8.814;2023-11-19T12:20:50;22.40;69.70
66271;DHT22;53063;39.614;8.814;2023-11-19T12:23:16;22.20;71.70
66271;DHT22;53063;39.614;8.814;2023-11-19T12:25:42;22.70;70.80
66271;DHT22;53063;39.614;8.814;2023-11-19T12:28:12;22.70;69.90
66271;DHT22;53063;39.614;8.814;2023-11-19T12:30:38;23.10;68.70
66271;DHT22;53063;39.614;8.814;2023-11-19T12:33:12;23.30;68.20
66271;DHT22;53063;39.614;8.814;2023-11-19T12:35:41;23.50;67.90
66271;DHT22;53063;39.614;8.814;2023-11-19T12:38:17;23.30;67.60
66271;DHT22;53063;39.614;8.814;2023-11-19T12:40:43;22.60;69.00
66271;DHT22;53063;39.614;8.814;2023-11-19T12:43:09;22.70;68.20
66271;DHT22;53063;39.614;8.814;2023-11-19T12:45:35;22.80;68.50
66271;DHT22;53063;39.614;8.814;2023-11-19T12:48:05;23.10;67.30
66271;DHT22;53063;39.614;8.814;2023-11-19T12:50:57;23.30;66.90
66271;DHT22;53063;39.614;8.814;2023-11-19T12:53:24;23.40;67.70
66271;DHT22;53063;39.614;8.814;2023-11-19T12:55:51;23.50;66.10
66271;DHT22;53063;39.614;8.814;2023-11-19T12:58:44;23.60;66.40
66271;DHT22;53063;39.614;8.814;2023-11-19T13:01:19;23.80;66.60
66271;DHT22;53063;39.614;8.814;2023-11-19T13:03:45;23.70;65.90
66271;DHT22;53063;39.614;8.814;2023-11-19T13:06:13;23.70;67.80
66271;DHT22;53063;39.614;8.814;2023-11-19T13:08:47;23.90;68.30
66271;DHT22;53063;39.614;8.814;2023-11-19T13:11:31;23.60;68.50
66271;DHT22;53063;39.614;8.814;2023-11-19T13:13:59;22.90;70.30
66271;DHT22;53063;39.614;8.814;2023-11-19T13:16:26;22.70;72.00
66271;DHT22;53063;39.614;8.814;2023-11-19T13:18:52;23.30;72.00
66271;DHT22;53063;39.614;8.814;2023-11-19T13:21:18;23.70;70.90
66271;DHT22;53063;39.614;8.814;2023-11-19T13:23:44;23.60;69.70
66271;DHT22;53063;39.614;8.814;2023-11-19T13:26:11;23.30;70.10
66271;DHT22;53063;39.614;8.814;2023-11-19T13:28:37;22.30;73.30
66271;DHT22;53063;39.614;8.814;2023-11-19T13:31:04;21.70;77.00
66271;DHT22;53063;39.614;8.814;2023-11-19T13:33:30;21.20;79.90
66271;DHT22;53063;39.614;8.814;2023-11-19T13:35:56;21.10;81.90
66271;DHT22;53063;39.614;8.814;2023-11-19T13:38:22;20.90;83.40
66271;DHT22;53063;39.614;8.814;2023-11-19T13:40:51;20.70;85.20
66271;DHT22;53063;39.614;8.814;2023-11-19T13:43:17;20.50;86.80
66271;DHT22;53063;39.614;8.814;2023-11-19T13:45:43;20.40;88.20
66271;DHT22;53063;39.614;8.814;2023-11-19T13:48:09;20.20;89.70
66271;DHT22;53063;39.614;8.814;2023-11-19T13:50:35;20.00;90.80
66271;DHT22;53063;39.614;8.814;2023-11-19T13:53:01;20.00;91.50
66271;DHT22;53063;39.614;8.814;2023-11-19T13:55:27;20.00;91.40
66271;DHT22;53063;39.614;8.814;2023-11-19T13:57:53;20.40;90.30
66271;DHT22;53063;39.614;8.814;2023-11-19T14:00:18;20.30;89.80
66271;DHT22;53063;39.614;8.814;2023-11-19T14:02:48;20.30;89.70
66271;DHT22;53063;39.614;8.814;2023-11-19T14:05:14;20.00;90.90
66271;DHT22;53063;39.614;8.814;2023-11-19T14:07:44;19.70;92.70
66271;DHT22;53063;39.614;8.814;2023-11-19T14:10:10;20.80;96.70
66271;DHT22;53063;39.614;8.814;2023-11-19T14:12:38;20.30;91.00
66271;DHT22;53063;39.614;8.814;2023-11-19T14:15:05;20.70;96.50
66271;DHT22;53063;39.614;8.814;2023-11-19T14:17:33;22.60;81.80
66271;DHT22;53063;39.614;8.814;2023-11-19T14:20:00;21.50;84.40
66271;DHT22;53063;39.614;8.814;2023-11-19T14:22:26;21.00;86.50
66271;DHT22;53063;39.614;8.814;2023-11-19T14:24:52;20.60;88.20
66271;DHT22;53063;39.614;8.814;2023-11-19T14:27:18;20.40;88.90
66271;DHT22;53063;39.614;8.814;2023-11-19T14:29:45;20.40;88.60
66271;DHT22;53063;39.614;8.814;2023-11-19T14:32:11;20.30;88.10
66271;DHT22;53063;39.614;8.814;2023-11-19T14:34:37;20.20;87.70
66271;DHT22;53063;39.614;8.814;2023-11-19T14:37:03;20.20;87.80
66271;DHT22;53063;39.614;8.814;2023-11-19T14:39:29;20.20;88.50
66271;DHT22;53063;39.614;8.814;2023-11-19T14:41:58;20.10;88.90
66271;DHT22;53063;39.614;8.814;2023-11-19T14:44:27;20.10;88.60
66271;DHT22;53063;39.614;8.814;2023-11-19T14:46:54;20.10;87.50
66271;DHT22;53063;39.614;8.814;2023-11-19T14:49:20;20.10;86.40
66271;DHT22;53063;39.614;8.814;2023-11-19T14:51:46;20.10;86.80
66271;DHT22;53063;39.614;8.814;2023-11-19T14:54:12;20.30;86.10
66271;DHT22;53063;39.614;8.814;2023-11-19T14:56:40;20.30;86.20
66271;DHT22;53063;39.614;8.814;2023-11-19T14:59:06;20.50;86.30
66271;DHT22;53063;39.614;8.814;2023-11-19T15:01:33;20.40;87.00
66271;DHT22;53063;39.614;8.814;2023-11-19T15:03:58;20.30;88.40
66271;DHT22;53063;39.614;8.814;2023-11-19T15:06:25;20.20;89.90
66271;DHT22;53063;39.614;8.814;2023-11-19T15:08:59;20.10;90.90
66271;DHT22;53063;39.614;8.814;2023-11-19T15:11:24;19.90;91.50
66271;DHT22;53063;39.614;8.814;2023-11-19T15:13:50;19.90;91.40
66271;DHT22;53063;39.614;8.814;2023-11-19T15:16:16;19.90;91.80
66271;DHT22;53063;39.614;8.814;2023-11-19T15:18:48;19.80;91.50
66271;DHT22;53063;39.614;8.814;2023-11-19T15:21:14;19.60;90.90
66271;DHT22;53063;39.614;8.814;2023-11-19T15:23:40;19.60;90.90
66271;DHT22;53063;39.614;8.814;2023-11-19T15:26:06;19.50;91.40
66271;DHT22;53063;39.614;8.814;2023-11-19T15:28:38;19.40;92.40
66271;DHT22;53063;39.614;8.814;2023-11-19T15:31:04;19.40;93.50
66271;DHT22;53063;39.614;8.814;2023-11-19T15:33:30;19.30;94.60
66271;DHT22;53063;39.614;8.814;2023-11-19T15:35:57;19.20;95.70
66271;DHT22;53063;39.614;8.814;2023-11-19T15:38:25;19.10;96.30
66271;DHT22;53063;39.614;8.814;2023-11-19T15:40:53;19.00;96.50
66271;DHT22;53063;39.614;8.814;2023-11-19T15:43:19;18.90;96.90
66271;DHT22;53063;39.614;8.814;2023-11-19T15:45:45;18.90;97.20
66271;DHT22;53063;39.614;8.814;2023-11-19T15:48:11;18.70;97.20
66271;DHT22;53063;39.614;8.814;2023-11-19T15:50:39;18.60;97.80
66271;DHT22;53063;39.614;8.814;2023-11-19T15:53:05;18.50;98.30
66271;DHT22;53063;39.614;8.814;2023-11-19T15:55:31;18.40;99.00